Time;durP1;ratioP1;P1;durP2;ratioP2;P2;SDS_P1;SDS_P2;PMS_P1;PMS_P2;Temp;Humidity;BMP_temperature;BMP_pressure;BME280_temperature;BME280_humidity;BME280_pressure;Samples;Min_cycle;Max_cycle;Signal;HPM_P1;HPM_P2
2021/08/16 00:00:38;;;;;;;3.87;3.00;;;;;;;26.96;46.21;100615.16;1729802;81;21043;-41
2021/08/16 00:03:06;;;;;;;4.25;2.75;;;;;;;26.97;46.23;100621.55;1735789;80;21545;-42
2021/08/16 00:05:32;;;;;;;4.58;2.67;;;;;;;26.96;46.25;100615.16;1733327;82;21040;-42
2021/08/16 00:07:59;;;;;;;4.47;2.80;;;;;;;26.97;46.29;100608.41;1730188;80;21230;-42
2021/08/16 00:10:25;;;;;;;4.35;3.20;;;;;;;26.97;46.31;100600.03;1733228;80;21164;-41
2021/08/16 00:12:51;;;;;;;4.12;2.72;;;;;;;26.97;46.34;100602.82;1734019;81;21606;-41
2021/08/16 00:15:17;;;;;;;6.25;3.70;;;;;;;26.96;46.38;100601.20;1740128;80;21060;-43
2021/08/16 00:17:44;;;;;;;4.80;2.90;;;;;;;26.97;46.41;100594.44;1730146;80;21074;-45
2021/08/16 00:20:11;;;;;;;3.65;2.92;;;;;;;26.98;46.42;100600.84;1732986;80;21059;-42
2021/08/16 00:22:37;;;;;;;4.10;2.87;;;;;;;26.98;46.47;100595.26;1740379;81;22163;-43
2021/08/16 00:25:05;;;;;;;3.52;2.67;;;;;;;26.98;46.48;100594.67;1733011;81;22022;-41
2021/08/16 00:27:31;;;;;;;7.05;3.58;;;;;;;26.98;46.53;100592.46;1732287;80;21114;-46
2021/08/16 00:29:58;;;;;;;3.67;2.62;;;;;;;26.99;46.56;100584.31;1729484;81;21042;-41
2021/08/16 00:32:24;;;;;;;4.97;3.15;;;;;;;27.00;46.58;100588.70;1728185;80;21517;-42
2021/08/16 00:34:50;;;;;;;3.98;3.52;;;;;;;26.99;46.64;100595.48;1725537;81;21106;-43
2021/08/16 00:37:16;;;;;;;5.35;3.50;;;;;;;26.99;46.66;100593.47;1732910;80;21325;-41
2021/08/16 00:39:43;;;;;;;5.62;3.85;;;;;;;27.00;46.68;100598.47;1728389;81;21560;-43
2021/08/16 00:42:12;;;;;;;5.35;4.00;;;;;;;27.00;46.70;100589.52;1726909;81;21043;-40
2021/08/16 00:44:37;;;;;;;4.87;3.80;;;;;;;27.00;46.72;100599.87;1695086;82;21639;-42
2021/08/16 00:47:04;;;;;;;4.47;3.45;;;;;;;27.00;46.75;100602.08;1653423;83;21120;-42
2021/08/16 00:49:30;;;;;;;4.70;3.45;;;;;;;27.00;46.78;100605.45;1674928;83;21489;-41
2021/08/16 00:51:56;;;;;;;7.00;3.90;;;;;;;27.00;46.82;100603.48;1689911;83;21023;-43
2021/08/16 00:54:22;;;;;;;4.45;3.33;;;;;;;27.01;46.84;100604.29;1670452;83;21170;-42
2021/08/16 00:56:48;;;;;;;4.87;3.22;;;;;;;27.00;46.89;100597.89;1670323;84;21555;-41
2021/08/16 00:59:16;;;;;;;5.17;3.33;;;;;;;27.02;46.93;100596.95;1698248;83;21136;-42
2021/08/16 01:01:42;;;;;;;5.00;3.22;;;;;;;27.02;46.97;100596.14;1697147;83;22234;-42
2021/08/16 01:04:08;;;;;;;4.80;3.60;;;;;;;27.03;47.02;100601.95;1702804;83;21077;-42
2021/08/16 01:06:34;;;;;;;5.03;3.47;;;;;;;27.02;47.08;100598.94;1699132;83;20961;-42
2021/08/16 01:09:00;;;;;;;4.62;3.30;;;;;;;27.02;47.12;100599.74;1701496;83;21141;-43
2021/08/16 01:11:26;;;;;;;4.60;3.37;;;;;;;27.03;47.15;100598.55;1693882;82;21114;-43
2021/08/16 01:13:53;;;;;;;5.17;3.75;;;;;;;27.03;47.18;100599.94;1697161;83;21736;-44
2021/08/16 01:16:19;;;;;;;5.42;3.60;;;;;;;27.03;47.25;100590.17;1699262;83;20986;-41
2021/08/16 01:18:46;;;;;;;4.87;3.25;;;;;;;27.03;47.25;100590.17;1702170;83;21023;-41
2021/08/16 01:21:15;;;;;;;4.72;2.80;;;;;;;27.03;47.28;100585.98;1704588;83;21089;-43
2021/08/16 01:23:41;;;;;;;6.65;3.40;;;;;;;27.04;47.30;100582.02;1697581;83;21074;-43
2021/08/16 01:26:08;;;;;;;4.95;3.10;;;;;;;27.04;47.32;100586.80;1699380;83;22172;-41
2021/08/16 01:28:34;;;;;;;4.50;3.10;;;;;;;27.04;47.36;100582.02;1694988;83;21125;-42
2021/08/16 01:31:05;;;;;;;4.05;3.25;;;;;;;27.04;47.40;100579.23;1700329;83;21532;-41
2021/08/16 01:33:32;;;;;;;6.60;3.42;;;;;;;27.05;47.44;100581.44;1699803;83;21976;-41
2021/08/16 01:35:58;;;;;;;5.00;3.30;;;;;;;27.04;47.49;100579.23;1699555;83;21083;-41
2021/08/16 01:38:34;;;;;;;3.55;2.90;;;;;;;27.05;47.53;100579.45;1699424;83;21358;-41
2021/08/16 01:41:00;;;;;;;4.28;3.45;;;;;;;27.06;47.57;100591.44;1698654;84;21088;-43
2021/08/16 01:43:26;;;;;;;4.33;2.95;;;;;;;27.05;47.61;100583.64;1701231;83;21545;-40
2021/08/16 01:45:53;;;;;;;4.85;3.15;;;;;;;27.06;47.61;100583.06;1704230;83;21085;-41
2021/08/16 01:48:19;;;;;;;4.25;3.42;;;;;;;27.06;47.64;100574.69;1701377;83;21099;-41
2021/08/16 01:50:45;;;;;;;4.35;3.30;;;;;;;27.05;47.66;100582.25;1701857;83;21458;-41
2021/08/16 01:53:12;;;;;;;4.92;3.58;;;;;;;27.06;47.71;100577.48;1701203;83;21012;-42
2021/08/16 01:55:39;;;;;;;6.83;3.58;;;;;;;27.06;47.74;100576.89;1695718;83;21785;-41
2021/08/16 01:58:05;;;;;;;4.42;3.15;;;;;;;27.06;47.78;100575.49;1694204;83;21047;-41
2021/08/16 02:00:31;;;;;;;5.35;3.30;;;;;;;27.06;47.83;100582.48;1738952;80;21121;-41
2021/08/16 02:02:57;;;;;;;4.00;3.15;;;;;;;27.07;47.87;100584.10;1741652;80;22001;-44
2021/08/16 02:05:23;;;;;;;5.55;3.75;;;;;;;27.06;47.90;100578.29;1742720;80;21078;-42
2021/08/16 02:07:50;;;;;;;3.80;3.33;;;;;;;27.06;47.93;100578.29;1742856;80;21094;-43
2021/08/16 02:10:16;;;;;;;3.77;3.33;;;;;;;27.07;47.96;100580.50;1739351;80;21070;-42
2021/08/16 02:12:42;;;;;;;4.05;3.30;;;;;;;27.08;47.99;100584.30;1746600;80;21552;-42
2021/08/16 02:15:10;;;;;;;5.60;3.42;;;;;;;27.06;48.02;100576.89;1710782;82;21232;-42
2021/08/16 02:17:37;;;;;;;4.58;3.70;;;;;;;27.07;48.03;100576.31;1741869;80;21085;-43
2021/08/16 02:20:07;;;;;;;5.40;3.65;;;;;;;27.08;48.06;100577.91;1743899;80;21162;-45
2021/08/16 02:22:33;;;;;;;5.62;3.37;;;;;;;27.07;48.10;100579.09;1740230;80;21017;-41
2021/08/16 02:24:59;;;;;;;4.25;3.62;;;;;;;27.08;48.12;100577.31;1742089;80;21683;-40
2021/08/16 02:27:26;;;;;;;6.58;3.95;;;;;;;27.07;48.13;100574.33;1690137;82;23149;-44
2021/08/16 02:29:55;;;;;;;4.33;3.08;;;;;;;27.07;48.16;100577.12;1669243;84;21139;-45
2021/08/16 02:32:21;;;;;;;4.83;3.45;;;;;;;27.08;48.19;100578.71;1668926;84;21479;-41
2021/08/16 02:34:47;;;;;;;5.30;4.12;;;;;;;27.08;48.19;100579.30;1675879;84;20969;-41
2021/08/16 02:37:14;;;;;;;4.45;3.25;;;;;;;27.07;48.21;100585.50;1670163;84;21021;-41
2021/08/16 02:39:40;;;;;;;3.77;3.20;;;;;;;27.08;48.25;100579.30;1671504;84;21436;-41
2021/08/16 02:42:07;;;;;;;4.55;3.22;;;;;;;27.08;48.26;100581.50;1666938;84;21032;-42
2021/08/16 02:44:33;;;;;;;4.62;3.42;;;;;;;27.07;48.27;100582.70;1627008;85;21012;-41
2021/08/16 02:46:59;;;;;;;4.20;3.22;;;;;;;27.07;48.26;100590.27;1672903;84;21047;-42
2021/08/16 02:49:25;;;;;;;4.30;3.55;;;;;;;27.07;48.29;100588.29;1669970;84;21080;-43
2021/08/16 02:51:52;;;;;;;6.08;4.03;;;;;;;27.08;48.28;100587.67;1671048;84;21520;-43
2021/08/16 02:54:18;;;;;;;4.72;3.42;;;;;;;27.07;48.31;100595.27;1644145;84;20912;-43
2021/08/16 02:56:44;;;;;;;5.53;3.58;;;;;;;27.08;48.29;100589.07;1673242;84;21036;-41
2021/08/16 02:59:10;;;;;;;4.20;3.50;;;;;;;27.08;48.29;100591.86;1674931;84;22100;-44
2021/08/16 03:01:36;;;;;;;3.92;3.40;;;;;;;27.07;48.29;100588.88;1669411;84;21052;-43
2021/08/16 03:04:02;;;;;;;5.15;3.22;;;;;;;27.07;48.31;100588.29;1674930;84;21541;-43
2021/08/16 03:06:28;;;;;;;4.45;3.62;;;;;;;27.07;48.32;100586.08;1671774;84;21096;-41
2021/08/16 03:08:56;;;;;;;5.10;3.50;;;;;;;27.06;48.33;100585.27;1677705;84;21103;-42
2021/08/16 03:11:24;;;;;;;4.17;3.25;;;;;;;27.06;48.35;100588.06;1672594;84;21562;-42
2021/08/16 03:13:50;;;;;;;4.47;3.58;;;;;;;27.06;48.38;100584.45;1672265;84;21114;-41
2021/08/16 03:16:16;;;;;;;5.12;3.90;;;;;;;27.07;48.38;100588.88;1668770;84;21194;-41
2021/08/16 03:18:42;;;;;;;5.92;3.70;;;;;;;27.06;48.38;100585.85;1670575;84;21005;-43
2021/08/16 03:21:09;;;;;;;5.08;3.75;;;;;;;27.06;48.40;100585.27;1670232;84;21044;-42
2021/08/16 03:23:35;;;;;;;4.55;3.65;;;;;;;27.06;48.42;100590.04;1672664;84;21072;-45
2021/08/16 03:26:01;;;;;;;4.75;3.67;;;;;;;27.06;48.43;100583.06;1672759;84;21061;-46
2021/08/16 03:28:28;;;;;;;5.35;3.90;;;;;;;27.05;48.46;100583.64;1700212;82;21164;-42
2021/08/16 03:30:54;;;;;;;3.95;3.47;;;;;;;27.06;48.48;100577.48;1699949;82;21550;-41
2021/08/16 03:33:21;;;;;;;4.67;3.75;;;;;;;27.05;48.50;100582.25;1702882;82;20964;-44
2021/08/16 03:35:47;;;;;;;3.98;3.58;;;;;;;27.05;48.54;100585.63;1699568;82;21795;-44
2021/08/16 03:38:13;;;;;;;6.03;3.87;;;;;;;27.05;48.56;100585.04;1699047;82;21037;-41
2021/08/16 03:40:39;;;;;;;5.03;4.10;;;;;;;27.06;48.58;100590.04;1703999;82;20972;-42
2021/08/16 03:43:05;;;;;;;4.87;3.90;;;;;;;27.04;48.61;100584.81;1703801;82;21542;-46
2021/08/16 03:45:32;;;;;;;5.05;3.42;;;;;;;27.05;48.62;100589.81;1694775;84;21072;-43
2021/08/16 03:47:58;;;;;;;5.45;3.80;;;;;;;27.05;48.64;100591.20;1726159;80;21060;-43
2021/08/16 03:50:24;;;;;;;5.37;3.98;;;;;;;27.04;48.67;100594.59;1732098;80;21544;-42
2021/08/16 03:52:50;;;;;;;4.80;3.83;;;;;;;27.04;48.71;100597.38;1734990;80;21281;-41
2021/08/16 03:55:16;;;;;;;5.42;3.92;;;;;;;27.04;48.73;100593.77;1730626;80;20958;-41
2021/08/16 03:57:43;;;;;;;7.28;4.03;;;;;;;27.04;48.75;100597.38;1727617;80;21070;-43
2021/08/16 04:00:11;;;;;;;5.72;4.33;;;;;;;27.04;48.79;100600.17;1722938;81;21025;-41
2021/08/16 04:02:40;;;;;;;19.37;7.83;;;;;;;27.04;48.86;100594.59;1729074;80;21088;-42
2021/08/16 04:05:06;;;;;;;16.15;6.47;;;;;;;27.04;48.88;100602.16;1699411;82;21963;-40
2021/08/16 04:07:32;;;;;;;203.05;65.17;;;;;;;27.05;48.91;100603.19;1727228;81;20996;-43
2021/08/16 04:09:59;;;;;;;64.97;19.73;;;;;;;27.05;48.98;100600.40;1734275;81;21097;-42
2021/08/16 04:12:25;;;;;;;43.10;13.88;;;;;;;27.05;49.06;100605.98;1729651;80;20920;-42
2021/08/16 04:14:52;;;;;;;11.88;5.47;;;;;;;27.07;49.08;100602.25;1708489;82;20999;-42
2021/08/16 04:17:19;;;;;;;9.23;4.70;;;;;;;27.07;49.09;100600.05;1733447;80;21827;-45
2021/08/16 04:19:45;;;;;;;43.15;14.68;;;;;;;27.06;49.15;100602.02;1726934;80;20972;-42
2021/08/16 04:22:11;;;;;;;20.35;7.33;;;;;;;27.07;49.21;100593.88;1732861;80;21505;-44
2021/08/16 04:24:37;;;;;;;143.25;41.05;;;;;;;27.09;49.29;100592.09;1730615;80;20936;-42
2021/08/16 04:27:04;;;;;;;102.80;27.58;;;;;;;27.08;49.35;100589.88;1733265;80;21134;-44
2021/08/16 04:29:30;;;;;;;27.10;9.10;;;;;;;27.09;49.42;100585.11;1732877;80;21861;-43
2021/08/16 04:31:56;;;;;;;30.97;10.18;;;;;;;27.09;49.50;100584.52;1731277;80;20919;-44
2021/08/16 04:34:23;;;;;;;4.65;3.08;;;;;;;27.10;49.55;100586.73;1736866;80;21106;-42
2021/08/16 04:36:49;;;;;;;6.97;4.28;;;;;;;27.10;49.66;100590.92;1733307;80;21078;-45
2021/08/16 04:39:16;;;;;;;5.50;3.75;;;;;;;27.12;49.76;100592.75;1731609;80;21127;-42
2021/08/16 04:41:42;;;;;;;7.00;3.65;;;;;;;27.12;49.85;100595.54;1734051;80;21274;-41
2021/08/16 04:44:08;;;;;;;6.75;3.50;;;;;;;27.12;49.88;100596.34;1725530;80;21029;-41
2021/08/16 04:46:34;;;;;;;25.88;6.72;;;;;;;27.12;49.96;100591.34;1733303;82;21097;-43
2021/08/16 04:49:00;;;;;;;566.35;172.17;;;;;;;27.13;50.05;100592.97;1728985;80;20998;-42
2021/08/16 04:51:26;;;;;;;232.37;50.40;;;;;;;27.13;50.15;100588.78;1726551;80;21774;-41
2021/08/16 04:53:52;;;;;;;149.77;34.90;;;;;;;27.15;50.26;100593.43;1733744;80;22163;-46
2021/08/16 04:56:19;;;;;;;117.25;28.55;;;;;;;27.14;50.33;100589.83;1729333;81;21055;-41
2021/08/16 04:58:45;;;;;;;45.33;12.28;;;;;;;27.15;50.41;100581.67;1730131;81;21439;-41
2021/08/16 05:01:11;;;;;;;19.30;7.37;;;;;;;27.16;50.49;100586.06;1728485;80;20912;-41
2021/08/16 05:03:37;;;;;;;12.60;6.17;;;;;;;27.17;50.55;100592.45;1732597;81;20922;-43
2021/08/16 05:06:07;;;;;;;12.82;4.90;;;;;;;27.17;50.61;100594.66;1734480;80;21371;-43
2021/08/16 05:08:35;;;;;;;8.03;4.60;;;;;;;27.16;50.67;100588.85;1707360;82;21283;-41
2021/08/16 05:11:03;;;;;;;7.67;3.92;;;;;;;27.18;50.71;100601.06;1733229;80;21067;-42
2021/08/16 05:13:30;;;;;;;8.10;4.20;;;;;;;27.18;50.73;100602.46;1724657;80;21375;-43
2021/08/16 05:15:56;;;;;;;8.25;4.03;;;;;;;27.18;50.73;100599.67;1705375;82;20997;-42
2021/08/16 05:18:22;;;;;;;6.60;4.12;;;;;;;27.18;50.73;100607.46;1705186;82;21296;-45
2021/08/16 05:20:49;;;;;;;7.95;4.25;;;;;;;27.18;50.77;100608.05;1705235;82;20984;-41
2021/08/16 05:23:20;;;;;;;7.00;4.42;;;;;;;27.18;50.76;100608.86;1706188;83;21495;-42
2021/08/16 05:25:46;;;;;;;5.67;3.95;;;;;;;27.18;50.77;100602.46;1704573;82;21877;-43
2021/08/16 05:28:13;;;;;;;5.65;3.50;;;;;;;27.18;50.76;100607.46;1704768;82;21224;-43
2021/08/16 05:30:40;;;;;;;7.65;4.45;;;;;;;27.18;50.77;100611.66;1705607;82;21567;-41
2021/08/16 05:33:06;;;;;;;6.83;3.80;;;;;;;27.19;50.77;100612.47;1707613;82;21722;-43
2021/08/16 05:35:32;;;;;;;5.47;4.00;;;;;;;27.19;50.76;100612.47;1731949;80;21049;-41
2021/08/16 05:37:59;;;;;;;7.30;4.12;;;;;;;27.18;50.76;100608.05;1731558;81;21035;-41
2021/08/16 05:40:25;;;;;;;4.92;3.75;;;;;;;27.18;50.77;100607.46;1735708;80;20888;-42
2021/08/16 05:42:51;;;;;;;6.78;4.00;;;;;;;27.18;50.78;100605.25;1733295;80;21114;-42
2021/08/16 05:45:17;;;;;;;6.55;3.58;;;;;;;27.18;50.78;100614.45;1735508;80;21509;-42
2021/08/16 05:47:43;;;;;;;5.80;4.10;;;;;;;27.19;50.79;100610.48;1731433;81;21004;-42
2021/08/16 05:50:10;;;;;;;6.67;3.80;;;;;;;27.19;50.82;100602.69;1737285;81;20919;-43
2021/08/16 05:52:36;;;;;;;6.53;3.87;;;;;;;27.18;50.79;100609.45;1735713;80;21505;-42
2021/08/16 05:55:04;;;;;;;8.83;3.87;;;;;;;27.18;50.83;100606.65;1725942;80;21890;-42
2021/08/16 05:57:30;;;;;;;6.60;3.92;;;;;;;27.18;50.83;100610.25;1730439;81;20988;-41
2021/08/16 05:59:56;;;;;;;5.92;3.85;;;;;;;27.18;50.83;100614.45;1701268;82;21108;-44
2021/08/16 06:02:23;;;;;;;6.75;4.33;;;;;;;27.18;50.83;100612.23;1734554;82;21094;-42
2021/08/16 06:04:49;;;;;;;5.20;3.55;;;;;;;27.18;50.83;100610.25;1736347;80;21087;-41
2021/08/16 06:07:15;;;;;;;5.62;3.85;;;;;;;27.17;50.84;100613.41;1737335;80;22026;-44
2021/08/16 06:09:42;;;;;;;6.70;3.98;;;;;;;27.18;50.82;100609.45;1732075;82;21039;-43
2021/08/16 06:12:08;;;;;;;7.00;3.75;;;;;;;27.18;50.79;100608.05;1732731;81;21798;-43
2021/08/16 06:14:35;;;;;;;6.53;3.60;;;;;;;27.18;50.78;100622.02;1729870;82;21079;-43
2021/08/16 06:17:01;;;;;;;4.90;3.27;;;;;;;27.17;50.78;100624.58;1730007;81;20983;-42
2021/08/16 06:19:27;;;;;;;6.67;3.50;;;;;;;27.17;50.78;100624.58;1729375;82;22054;-43
2021/08/16 06:21:53;;;;;;;4.42;3.20;;;;;;;27.16;50.78;100626.56;1725102;82;21531;-43
2021/08/16 06:24:20;;;;;;;6.03;3.33;;;;;;;27.15;50.79;100631.95;1727581;82;21133;-43
2021/08/16 06:26:46;;;;;;;8.28;3.70;;;;;;;27.16;50.80;100624.34;1731123;81;21069;-40
2021/08/16 06:29:12;;;;;;;5.08;3.40;;;;;;;27.16;50.77;100622.95;1727072;81;21097;-43
2021/08/16 06:31:38;;;;;;;4.28;2.95;;;;;;;27.16;50.75;100632.14;1734905;81;21247;-41
2021/08/16 06:34:07;;;;;;;7.42;3.55;;;;;;;27.15;50.74;100627.75;1710899;82;21080;-43
2021/08/16 06:36:38;;;;;;;7.80;3.37;;;;;;;27.15;50.71;100631.95;1746119;81;21454;-42
2021/08/16 06:39:00;;;;;;;7.00;3.67;;;;;;;27.15;50.68;100630.55;1701756;83;22036;-41
2021/08/16 06:41:26;;;;;;;6.45;3.58;;;;;;;27.15;50.67;100629.73;1743648;80;21043;-42
2021/08/16 06:43:52;;;;;;;4.87;3.37;;;;;;;27.14;50.63;100635.91;1746393;80;21218;-41
2021/08/16 06:46:19;;;;;;;5.03;3.40;;;;;;;27.15;50.60;100636.13;1740865;80;20937;-44
2021/08/16 06:48:45;;;;;;;5.87;3.50;;;;;;;27.14;50.58;100628.92;1745528;80;21149;-42
2021/08/16 06:51:11;;;;;;;7.47;3.52;;;;;;;27.15;50.54;100635.32;1738325;81;21060;-43
2021/08/16 06:53:37;;;;;;;6.65;3.87;;;;;;;27.15;50.52;100633.34;1747662;80;21732;-43
2021/08/16 06:56:04;;;;;;;7.60;3.83;;;;;;;27.15;50.51;100640.32;1745176;80;23164;-43
2021/08/16 06:58:32;;;;;;;8.10;4.10;;;;;;;27.15;50.48;100634.73;1743566;81;21581;-44
2021/08/16 07:00:59;;;;;;;6.03;3.30;;;;;;;27.14;50.50;100635.91;1739430;80;21015;-43
2021/08/16 07:03:28;;;;;;;6.47;3.77;;;;;;;27.14;50.47;100640.09;1709387;82;21079;-41
2021/08/16 07:05:54;;;;;;;6.72;3.77;;;;;;;27.14;50.46;100645.68;1744371;80;21105;-45
2021/08/16 07:08:20;;;;;;;7.37;3.55;;;;;;;27.15;50.42;100648.70;1745339;81;21136;-43
2021/08/16 07:10:49;;;;;;;8.50;4.30;;;;;;;27.14;50.41;100652.66;1747242;80;20947;-42
2021/08/16 07:13:14;;;;;;;6.17;3.70;;;;;;;27.14;50.38;100651.84;1746105;80;21075;-49
2021/08/16 07:15:40;;;;;;;9.10;4.10;;;;;;;27.14;50.39;100656.85;1747328;80;20891;-42
2021/08/16 07:18:07;;;;;;;6.70;3.98;;;;;;;27.15;50.35;100657.08;1744912;80;21027;-42
2021/08/16 07:20:33;;;;;;;5.75;3.98;;;;;;;27.14;50.33;100655.45;1739786;80;23218;-43
2021/08/16 07:22:59;;;;;;;5.12;3.58;;;;;;;27.15;50.33;100657.66;1745621;80;21029;-47
2021/08/16 07:25:25;;;;;;;4.97;3.50;;;;;;;27.14;50.33;100654.05;1737912;81;20966;-42
2021/08/16 07:27:52;;;;;;;5.78;3.50;;;;;;;27.15;50.32;100650.69;1740900;79;21482;-43
2021/08/16 07:30:18;;;;;;;6.92;4.05;;;;;;;27.14;50.30;100656.85;1744047;80;21070;-44
2021/08/16 07:32:44;;;;;;;5.37;3.45;;;;;;;27.15;50.28;100658.48;1730305;81;21284;-41
2021/08/16 07:35:10;;;;;;;7.25;3.90;;;;;;;27.14;50.26;100659.64;1730557;81;21423;-43
2021/08/16 07:37:37;;;;;;;7.15;3.70;;;;;;;27.14;50.23;100654.05;1734045;80;22304;-41
2021/08/16 07:40:05;;;;;;;5.72;4.00;;;;;;;27.16;50.21;100655.06;1730827;80;21050;-44
2021/08/16 07:42:31;;;;;;;6.40;3.92;;;;;;;27.15;50.19;100655.69;1731467;81;20996;-41
2021/08/16 07:44:57;;;;;;;6.45;4.20;;;;;;;27.15;50.16;100653.48;1733571;81;21897;-42
2021/08/16 07:47:23;;;;;;;4.87;3.52;;;;;;;27.14;50.15;100652.66;1734246;80;21042;-42
2021/08/16 07:49:49;;;;;;;4.90;3.67;;;;;;;27.16;50.13;100655.06;1726318;81;21520;-42
2021/08/16 07:52:16;;;;;;;6.15;3.80;;;;;;;27.15;50.09;100654.28;1729830;80;21530;-43
2021/08/16 07:54:44;;;;;;;6.78;3.67;;;;;;;27.15;50.07;100645.91;1731022;81;21007;-43
2021/08/16 07:57:10;;;;;;;5.53;3.92;;;;;;;27.16;50.07;100648.09;1729584;80;22086;-42
2021/08/16 07:59:36;;;;;;;5.45;3.70;;;;;;;27.16;50.04;100649.48;1731858;80;21024;-43
2021/08/16 08:02:03;;;;;;;4.55;3.35;;;;;;;27.15;50.01;100647.30;1709839;82;20991;-42
2021/08/16 08:04:29;;;;;;;4.85;4.12;;;;;;;27.16;49.99;100646.69;1734759;80;21092;-42
2021/08/16 08:06:55;;;;;;;10.32;4.65;;;;;;;27.16;49.95;100649.48;1734214;80;20879;-42
2021/08/16 08:09:22;;;;;;;6.37;4.00;;;;;;;27.15;49.91;100652.89;1735057;80;21111;-42
2021/08/16 08:11:48;;;;;;;6.25;3.87;;;;;;;27.16;49.89;100655.88;1733069;80;21053;-42
2021/08/16 08:14:14;;;;;;;6.28;4.00;;;;;;;27.16;49.88;100649.48;1734278;80;21042;-43
2021/08/16 08:16:40;;;;;;;5.50;3.83;;;;;;;27.16;49.86;100648.09;1728437;80;21533;-41
2021/08/16 08:19:06;;;;;;;5.37;3.72;;;;;;;27.16;49.86;100649.48;1734292;80;21068;-44
2021/08/16 08:21:32;;;;;;;6.65;4.33;;;;;;;27.16;49.84;100648.09;1725171;80;21309;-43
2021/08/16 08:23:58;;;;;;;7.83;4.37;;;;;;;27.15;49.83;100650.09;1733548;80;21567;-42
2021/08/16 08:26:24;;;;;;;6.30;4.20;;;;;;;27.15;49.82;100647.30;1736171;81;20951;-43
2021/08/16 08:28:51;;;;;;;5.22;3.58;;;;;;;27.15;49.80;100641.72;1736664;80;20991;-42
2021/08/16 08:31:17;;;;;;;5.60;3.70;;;;;;;27.15;49.80;100648.70;1733656;82;21022;-41
2021/08/16 08:33:43;;;;;;;5.95;4.08;;;;;;;27.16;49.83;100648.09;1735727;81;22063;-41
2021/08/16 08:36:09;;;;;;;6.28;4.25;;;;;;;27.16;49.82;100638.31;1734428;81;21044;-42
2021/08/16 08:38:35;;;;;;;4.15;3.75;;;;;;;27.16;49.83;100635.52;1738071;80;21000;-42
2021/08/16 08:41:03;;;;;;;5.58;3.60;;;;;;;27.16;49.86;100622.95;1736295;81;21065;-42
2021/08/16 08:43:29;;;;;;;5.72;3.95;;;;;;;27.15;49.89;100626.36;1735644;81;21417;-41
2021/08/16 08:45:56;;;;;;;5.90;4.20;;;;;;;27.16;49.93;100628.53;1734248;80;21216;-42
2021/08/16 08:48:22;;;;;;;5.78;4.15;;;;;;;27.16;49.95;100628.53;1737381;81;21593;-44
2021/08/16 08:50:50;;;;;;;5.12;4.53;;;;;;;27.16;49.94;100627.95;1733957;80;21031;-42
2021/08/16 08:53:16;;;;;;;6.47;4.80;;;;;;;27.16;49.82;100628.53;1735689;82;21089;-47
2021/08/16 08:55:44;;;;;;;5.37;3.98;;;;;;;27.11;49.59;100621.87;1728892;81;21032;-42
2021/08/16 08:58:12;;;;;;;6.55;4.83;;;;;;;27.06;49.39;100629.13;1735264;81;22140;-43
2021/08/16 09:00:38;;;;;;;6.33;4.60;;;;;;;27.02;49.19;100631.04;1729869;80;21013;-41
2021/08/16 09:03:04;;;;;;;6.58;4.67;;;;;;;26.96;49.05;100627.72;1735425;82;21122;-42
2021/08/16 09:05:31;;;;;;;6.35;4.78;;;;;;;26.94;48.86;100625.08;1736707;80;21082;-42
2021/08/16 09:08:00;;;;;;;6.55;4.33;;;;;;;26.90;48.71;100621.41;1735308;80;21101;-42
2021/08/16 09:10:27;;;;;;;7.45;4.80;;;;;;;26.86;48.53;100622.73;1732983;80;21134;-42
2021/08/16 09:12:59;;;;;;;5.62;4.67;;;;;;;26.81;48.34;100620.18;1730558;80;21584;-42
2021/08/16 09:15:26;;;;;;;7.03;4.10;;;;;;;26.79;48.16;100619.72;1733613;81;21099;-42
2021/08/16 09:17:53;;;;;;;6.90;4.10;;;;;;;26.75;47.96;100617.44;1711285;82;21134;-41
2021/08/16 09:20:26;;;;;;;5.05;3.90;;;;;;;26.72;47.77;100618.17;1734325;81;21465;-42
2021/08/16 09:23:04;;;;;;;6.90;4.20;;;;;;;26.70;47.63;100612.13;1734862;80;21075;-43
2021/08/16 09:25:38;;;;;;;5.12;3.75;;;;;;;26.68;47.42;100611.70;1734568;80;21062;-42
2021/08/16 09:28:05;;;;;;;4.92;3.62;;;;;;;26.65;47.25;100613.22;1741565;80;21074;-43
2021/08/16 09:30:39;;;;;;;6.22;4.20;;;;;;;26.62;47.10;100607.56;1733129;80;21078;-46
2021/08/16 09:33:20;;;;;;;4.78;4.10;;;;;;;26.60;46.94;100608.53;1732289;80;21070;-43
2021/08/16 09:35:57;;;;;;;5.42;3.52;;;;;;;26.56;46.78;100604.27;1730055;80;21103;-43
2021/08/16 09:38:40;;;;;;;4.42;3.65;;;;;;;26.54;46.63;100602.98;1729104;80;21178;-43
2021/08/16 09:41:22;;;;;;;4.37;3.70;;;;;;;26.51;46.51;100593.37;1729528;81;21095;-43
2021/08/16 09:43:51;;;;;;;4.50;3.40;;;;;;;26.50;46.33;100589.55;1716344;80;21738;-43
2021/08/16 09:46:18;;;;;;;4.50;3.40;;;;;;;26.50;46.14;100595.12;1732789;81;21094;-42
2021/08/16 09:48:58;;;;;;;3.72;3.30;;;;;;;26.50;45.93;100590.36;1733556;80;21072;-42
2021/08/16 09:51:25;;;;;;;5.15;3.83;;;;;;;26.51;45.72;100586.98;1722989;82;21057;-41
2021/08/16 09:53:52;;;;;;;4.70;3.50;;;;;;;26.50;45.51;100577.80;1730062;80;21173;-41
2021/08/16 09:56:20;;;;;;;4.60;3.47;;;;;;;26.50;45.35;100576.98;1732324;80;21082;-43
2021/08/16 09:58:47;;;;;;;3.92;2.98;;;;;;;26.49;45.19;100571.18;1730067;81;21058;-43
2021/08/16 10:01:13;;;;;;;4.50;3.50;;;;;;;26.50;45.00;100571.41;1730624;80;21100;-41
2021/08/16 10:03:40;;;;;;;4.72;3.58;;;;;;;26.48;44.86;100580.75;1733789;80;21543;-41
2021/08/16 10:06:07;;;;;;;3.80;3.20;;;;;;;26.46;44.71;100571.33;1672647;83;21086;-41
2021/08/16 10:08:46;;;;;;;4.33;3.50;;;;;;;26.47;44.57;100574.94;1734620;80;21547;-43
2021/08/16 10:11:18;;;;;;;4.55;3.33;;;;;;;26.45;44.45;100569.70;1728911;80;21573;-41
2021/08/16 10:13:54;;;;;;;3.87;3.20;;;;;;;26.44;44.30;100563.90;1729139;81;21140;-42
2021/08/16 10:16:26;;;;;;;3.80;3.15;;;;;;;26.44;44.16;100563.12;1731565;80;21455;-43
2021/08/16 10:19:00;;;;;;;4.15;2.85;;;;;;;26.42;44.06;100561.27;1732341;80;21052;-42
2021/08/16 10:21:26;;;;;;;3.25;2.83;;;;;;;26.42;43.95;100558.47;1742244;80;21885;-41
2021/08/16 10:23:54;;;;;;;4.05;3.45;;;;;;;26.41;43.81;100560.45;1730747;81;20908;-43
2021/08/16 10:26:32;;;;;;;4.40;3.22;;;;;;;26.39;43.70;100546.66;1731879;80;22242;-42
2021/08/16 10:29:01;;;;;;;5.55;3.17;;;;;;;26.38;43.59;100546.42;1735954;80;21126;-42
2021/08/16 10:31:31;;;;;;;5.10;3.27;;;;;;;26.38;43.49;100541.66;1731771;82;21622;-43
2021/08/16 10:33:58;;;;;;;4.33;3.10;;;;;;;26.37;43.39;100542.83;1744006;80;21489;-41
2021/08/16 10:36:24;;;;;;;3.05;2.72;;;;;;;26.36;43.31;100538.41;1717069;82;21106;-41
2021/08/16 10:38:57;;;;;;;4.20;2.72;;;;;;;26.35;43.22;100535.42;1688695;83;21325;-42
2021/08/16 10:41:26;;;;;;;4.65;2.80;;;;;;;26.34;43.13;100531.01;1707653;82;21529;-43
2021/08/16 10:43:52;;;;;;;3.85;2.80;;;;;;;26.33;43.04;100523.80;1688381;83;21462;-42
2021/08/16 10:46:23;;;;;;;3.72;3.17;;;;;;;26.26;42.98;100517.48;1694272;83;21072;-43
2021/08/16 10:48:59;;;;;;;;;;;;;;;26.32;42.92;100525.78;1701578;83;21034;-42
2021/08/16 10:51:26;;;;;;;4.62;2.87;;;;;;;26.30;42.89;100516.98;1698199;83;20983;-44
2021/08/16 10:53:54;;;;;;;3.50;2.80;;;;;;;26.28;42.89;100517.92;1697820;83;21165;-42
2021/08/16 10:56:22;;;;;;;3.87;3.00;;;;;;;26.27;42.81;100517.69;1695711;83;21019;-40
2021/08/16 10:58:49;;;;;;;3.17;2.72;;;;;;;26.25;42.72;100515.86;1694359;84;21076;-42
2021/08/16 11:01:35;;;;;;;3.98;2.92;;;;;;;26.25;42.67;100519.23;1693421;83;21186;-42
2021/08/16 11:04:03;;;;;;;4.15;2.92;;;;;;;26.25;42.61;100506.69;1696816;84;21256;-42
2021/08/16 11:06:30;;;;;;;2.87;2.58;;;;;;;26.24;42.53;100507.27;1698890;83;21058;-42
2021/08/16 11:09:04;;;;;;;2.92;2.45;;;;;;;26.24;42.45;100507.84;1715456;82;21051;-41
2021/08/16 11:11:35;;;;;;;3.70;3.30;;;;;;;26.23;42.41;100502.05;1700895;82;37826;-42
2021/08/16 11:14:10;;;;;;;3.20;2.80;;;;;;;26.35;41.75;100498.55;1708115;82;21067;-42
2021/08/16 11:16:49;;;;;;;2.67;2.27;;;;;;;26.34;41.78;100502.53;1707313;83;21157;-41
2021/08/16 11:19:15;;;;;;;3.92;2.55;;;;;;;26.34;41.80;100497.53;1686949;83;21096;-42
2021/08/16 11:21:59;;;;;;;3.83;3.00;;;;;;;26.31;41.82;100489.30;1707203;82;21079;-41
2021/08/16 11:24:34;;;;;;;2.83;2.60;;;;;;;26.31;41.87;100486.50;1708383;82;21090;-44